Rechercher aéroport 
image banner adimage banner adimage banner ad
image banner ad

E36 - Georgetown

Situé à Georgetown, United States

ICAO - E36, IATA -

Données fournies par Airmate  

Information générale

Coordonnées: N38°55'16" W120°51'53"
Élévation : 2625 feet MSL.
Variation magnétique : 16° East
Voir autres Aéroports à California

Données opérationnelles

Special qualification required
Heure actuelle UTC:
Heure actuelle locale:
Météo à : KAUN - Auburn Muni ( 19 km )
METAR: KAUN 262235Z AUTO 20007KT 160V220 10SM CLR 31/04 A2991 RMK A01
Voir NOTAMs / SUP AIP / TFR affectant cet aéroport [VIEW]
Fréquences de communication: [VIEW]

Pistes:

Identifiant RWYQFULongueur (ft)Largeur (ft)SurfaceLDA (ft)
16297962ASPH
34297962ASPH

Coordonnées de l'aéroport

Adresse: Georgetown United States

Vue satellite de E36